Terminal Aerodrome Forecast
Issued by NWS

Home | Current Version | Previous Version | Text Only | Print | Product List | Glossary On
Versions: 1 2 3 4 5 6 7 8 9 10 11 12 13 14 15 16 17
000
FTUS41 KGYX 020532
TAFRKD
TAF
KRKD 020532Z 0206/0306 VRB03KT P6SM OVC050
     FM020900 09003KT P6SM OVC025
     FM021200 09004KT 5SM -DZ BR BKN007 OVC015
     FM021800 09005KT 2SM -RA BR BKN004 OVC008
      AMD LTD TO CLD VIS AND WIND=

USA.gov is the U.S. government's official web portal to all federal, state and local government web resources and services.